createdAt,value
2019-02-10T00:00:43.256Z,9.42
2019-02-10T00:03:11.957Z,9.49
2019-02-10T00:05:40.488Z,9.59
2019-02-10T00:08:09.040Z,9.69
2019-02-10T00:10:37.556Z,9.71
2019-02-10T00:13:25.731Z,9.52
2019-02-10T00:15:54.746Z,9.41
2019-02-10T00:18:23.407Z,9.44
2019-02-10T00:20:52.241Z,9.51
2019-02-10T00:23:20.810Z,9.54
2019-02-10T00:25:49.408Z,9.37
2019-02-10T00:28:18.319Z,9.36
2019-02-10T00:30:46.840Z,9.29
2019-02-10T00:33:15.443Z,9.36
2019-02-10T00:35:44.072Z,9.44
2019-02-10T00:38:12.587Z,9.44
2019-02-10T00:40:41.236Z,9.55
2019-02-10T00:43:09.807Z,9.70
2019-02-10T00:45:38.422Z,9.72
2019-02-10T00:48:06.952Z,9.68
2019-02-10T00:50:35.463Z,9.62
2019-02-10T00:53:04.079Z,9.53
2019-02-10T00:55:32.668Z,9.45
2019-02-10T00:58:01.206Z,9.45
2019-02-10T01:00:29.821Z,9.48
2019-02-10T01:02:58.446Z,9.54
2019-02-10T01:05:27.254Z,9.64
2019-02-10T01:07:55.765Z,9.72
2019-02-10T01:10:25.726Z,9.80
2019-02-10T01:12:54.572Z,9.72
2019-02-10T01:15:23.221Z,9.73
2019-02-10T01:17:51.730Z,9.82
2019-02-10T01:20:20.349Z,9.90
2019-02-10T01:22:49.035Z,9.84
2019-02-10T01:25:17.624Z,9.64
2019-02-10T01:27:46.259Z,9.58
2019-02-10T01:30:15.969Z,9.42
2019-02-10T01:32:44.565Z,9.34
2019-02-10T01:35:13.527Z,9.35
2019-02-10T01:37:42.151Z,9.38
2019-02-10T01:40:11.622Z,9.23
2019-02-10T01:42:40.337Z,9.27
2019-02-10T01:45:11.491Z,9.27
2019-02-10T01:47:40.081Z,9.38
2019-02-10T01:50:10.759Z,9.50
2019-02-10T01:52:39.443Z,9.59
2019-02-10T01:55:10.593Z,9.65
2019-02-10T01:57:39.174Z,9.61
2019-02-10T02:00:13.300Z,9.49
2019-02-10T02:02:41.936Z,9.30
2019-02-10T02:05:10.638Z,9.30
2019-02-10T02:07:39.222Z,9.31
2019-02-10T02:10:10.966Z,9.26
2019-02-10T02:12:39.611Z,9.20
2019-02-10T02:15:11.181Z,9.19
2019-02-10T02:17:39.800Z,9.19
2019-02-10T02:20:09.988Z,9.23
2019-02-10T02:22:38.544Z,9.28
2019-02-10T02:25:12.067Z,9.33
2019-02-10T02:27:40.710Z,9.38
2019-02-10T02:30:14.424Z,9.60
2019-02-10T02:32:43.540Z,9.53
2019-02-10T02:35:12.141Z,9.34
2019-02-10T02:37:40.860Z,9.24
2019-02-10T02:40:10.956Z,9.10
2019-02-10T02:42:39.761Z,9.12
2019-02-10T02:45:10.394Z,9.11
2019-02-10T02:47:39.004Z,8.96
2019-02-10T02:50:10.258Z,8.94
2019-02-10T02:52:39.021Z,8.94
2019-02-10T02:55:09.643Z,8.98
2019-02-10T02:57:38.241Z,8.89
2019-02-10T03:00:09.175Z,8.86
2019-02-10T03:02:37.752Z,8.98
2019-02-10T03:05:08.667Z,9.08
2019-02-10T03:07:37.243Z,8.99
2019-02-10T03:10:07.561Z,8.87
2019-02-10T03:12:39.806Z,8.67
2019-02-10T03:15:09.156Z,8.59
2019-02-10T03:17:37.758Z,8.47
2019-02-10T03:20:07.915Z,8.46
2019-02-10T03:22:36.537Z,8.36
2019-02-10T03:25:06.720Z,8.37
2019-02-10T03:27:35.292Z,8.41
2019-02-10T03:30:04.322Z,8.47
2019-02-10T03:32:32.813Z,8.47
2019-02-10T03:35:01.345Z,8.65
2019-02-10T03:37:29.894Z,8.68
2019-02-10T03:39:58.398Z,8.68
2019-02-10T03:42:26.992Z,8.76
2019-02-10T03:44:55.554Z,8.60
2019-02-10T03:47:24.066Z,8.35
2019-02-10T03:49:52.629Z,8.11
2019-02-10T03:52:21.175Z,8.14
2019-02-10T03:54:49.721Z,8.15
2019-02-10T03:57:18.291Z,8.20
2019-02-10T03:59:46.870Z,8.23
2019-02-10T04:02:15.908Z,8.26
2019-02-10T04:04:44.412Z,8.27
2019-02-10T04:07:13.076Z,8.35
2019-02-10T04:09:41.615Z,8.33
2019-02-10T04:12:10.270Z,8.30
2019-02-10T04:14:38.922Z,8.39
2019-02-10T04:17:08.628Z,8.57
2019-02-10T04:19:37.220Z,8.44
2019-02-10T04:22:05.915Z,8.39
2019-02-10T04:24:34.351Z,8.32
2019-02-10T04:27:02.896Z,8.32
2019-02-10T04:29:31.425Z,8.20
2019-02-10T04:32:00.038Z,8.22
2019-02-10T04:34:28.587Z,8.20
2019-02-10T04:36:57.141Z,8.11
2019-02-10T04:39:25.566Z,8.06
2019-02-10T04:41:54.082Z,8.10
2019-02-10T04:44:22.616Z,8.00
2019-02-10T04:46:51.180Z,8.13
2019-02-10T04:49:19.899Z,8.22
2019-02-10T04:51:48.459Z,8.32
2019-02-10T04:54:16.994Z,8.30
2019-02-10T04:56:45.441Z,8.12
2019-02-10T04:59:14.071Z,8.01
2019-02-10T05:01:42.667Z,8.03
2019-02-10T05:04:11.189Z,8.07
2019-02-10T05:06:39.677Z,8.08
2019-02-10T05:09:08.285Z,8.07
2019-02-10T05:11:36.839Z,8.03
2019-02-10T05:14:05.442Z,8.06
2019-02-10T05:16:34.074Z,8.09
2019-02-10T05:19:02.630Z,8.16
2019-02-10T05:21:31.197Z,8.11
2019-02-10T05:24:03.659Z,8.14
2019-02-10T05:26:29.904Z,8.23
2019-02-10T05:28:58.386Z,8.27
2019-02-10T05:31:27.028Z,8.18
2019-02-10T05:33:55.540Z,8.07
2019-02-10T05:36:24.166Z,7.99
2019-02-10T05:38:52.676Z,7.98
2019-02-10T05:41:21.258Z,8.06
2019-02-10T05:43:49.761Z,8.05
2019-02-10T05:46:18.314Z,8.00
2019-02-10T05:48:46.829Z,8.05
2019-02-10T05:51:15.268Z,8.16
2019-02-10T05:53:43.794Z,8.21
2019-02-10T05:56:12.236Z,8.20
2019-02-10T05:58:40.859Z,8.24
2019-02-10T06:01:34.657Z,8.33
2019-02-10T06:04:03.316Z,8.65
2019-02-10T06:06:31.915Z,8.43
2019-02-10T06:09:00.352Z,8.33
2019-02-10T06:11:28.984Z,8.38
2019-02-10T06:13:57.454Z,8.34
2019-02-10T06:16:26.017Z,8.31
2019-02-10T06:18:54.494Z,8.23
2019-02-10T06:21:23.011Z,8.20
2019-02-10T06:23:51.567Z,8.20
2019-02-10T06:26:20.037Z,8.26
2019-02-10T06:28:48.611Z,8.26
2019-02-10T06:31:17.042Z,8.38
2019-02-10T06:33:45.536Z,8.42
2019-02-10T06:36:14.036Z,8.55
2019-02-10T06:38:42.471Z,8.81
2019-02-10T06:41:11.075Z,8.76
2019-02-10T06:43:39.561Z,8.66
2019-02-10T06:46:08.473Z,8.65
2019-02-10T06:48:36.939Z,8.61
2019-02-10T06:51:05.460Z,8.60
2019-02-10T06:53:34.806Z,8.60
2019-02-10T06:56:03.563Z,8.54
2019-02-10T06:58:31.992Z,8.55
2019-02-10T07:01:05.211Z,8.66
2019-02-10T07:03:40.760Z,8.69
2019-02-10T07:06:10.195Z,8.77
2019-02-10T07:08:38.785Z,8.74
2019-02-10T07:11:07.332Z,8.83
2019-02-10T07:13:41.439Z,8.94
2019-02-10T07:16:38.353Z,8.93
2019-02-10T07:19:42.590Z,8.92
2019-02-10T07:22:43.259Z,8.83
2019-02-10T07:25:17.836Z,8.81
2019-02-10T07:28:04.478Z,8.83
2019-02-10T07:30:41.870Z,8.85
2019-02-10T07:33:13.344Z,8.87
2019-02-10T07:35:56.700Z,8.86
2019-02-10T07:38:38.766Z,8.89
2019-02-10T07:41:26.901Z,8.90
2019-02-10T07:44:13.667Z,8.96
2019-02-10T07:47:02.773Z,9.08
2019-02-10T07:50:07.480Z,9.37
2019-02-10T07:52:47.531Z,9.42
2019-02-10T07:55:40.401Z,9.30
2019-02-10T07:58:20.836Z,9.26
2019-02-10T08:00:57.853Z,9.21
2019-02-10T08:03:47.963Z,9.16
2019-02-10T08:06:46.885Z,9.20
2019-02-10T08:09:23.988Z,9.21
2019-02-10T08:12:04.480Z,9.27
2019-02-10T08:14:53.974Z,9.27
2019-02-10T08:17:45.310Z,9.31
2019-02-10T08:20:31.688Z,9.41
2019-02-10T08:23:06.125Z,9.53
2019-02-10T08:25:44.057Z,9.82
2019-02-10T08:28:24.386Z,9.77
2019-02-10T08:30:58.597Z,9.83
2019-02-10T08:33:30.112Z,9.89
2019-02-10T08:36:35.918Z,9.92
2019-02-10T08:39:27.961Z,9.90
2019-02-10T08:42:08.637Z,10.07
2019-02-10T08:44:40.125Z,10.10
2019-02-10T08:47:23.221Z,10.08
2019-02-10T08:49:57.802Z,10.19
2019-02-10T08:52:32.073Z,10.20
2019-02-10T08:55:02.423Z,10.33
2019-02-10T08:57:31.086Z,10.40
2019-02-10T08:59:59.939Z,10.44
2019-02-10T09:02:28.491Z,10.56
2019-02-10T09:04:57.105Z,10.67
2019-02-10T09:07:25.698Z,10.80
2019-02-10T09:09:54.254Z,10.75
2019-02-10T09:12:22.826Z,10.56
2019-02-10T09:14:51.382Z,10.58
2019-02-10T09:17:19.954Z,10.65
2019-02-10T09:19:48.536Z,10.64
2019-02-10T09:22:17.087Z,10.69
2019-02-10T09:24:46.278Z,10.68
2019-02-10T09:27:14.789Z,10.69
2019-02-10T09:29:43.333Z,10.69
2019-02-10T09:32:11.767Z,10.64
2019-02-10T09:34:40.323Z,10.58
2019-02-10T09:37:08.877Z,10.75
2019-02-10T09:39:37.390Z,10.71
2019-02-10T09:42:06.005Z,10.67
2019-02-10T09:44:34.622Z,10.71
2019-02-10T09:47:03.156Z,10.78
2019-02-10T09:49:31.654Z,10.82
2019-02-10T09:52:00.201Z,10.90
2019-02-10T09:54:28.797Z,10.85
2019-02-10T09:56:57.442Z,10.75
2019-02-10T09:59:26.052Z,10.60
2019-02-10T10:01:54.661Z,10.52
2019-02-10T10:04:23.143Z,10.42
2019-02-10T10:06:51.788Z,10.33
2019-02-10T10:09:20.364Z,10.34
2019-02-10T10:11:48.917Z,10.41
2019-02-10T10:14:19.745Z,10.26
2019-02-10T10:16:48.469Z,10.26
2019-02-10T10:19:17.086Z,10.22
2019-02-10T10:21:45.642Z,10.18
2019-02-10T10:24:14.217Z,10.18
2019-02-10T10:26:42.819Z,10.19
2019-02-10T10:29:11.512Z,10.23
2019-02-10T10:31:40.313Z,10.33
2019-02-10T10:34:08.962Z,10.31
2019-02-10T10:36:37.544Z,10.40
2019-02-10T10:39:06.470Z,10.57
2019-02-10T10:41:34.971Z,10.77
2019-02-10T10:44:03.578Z,10.65
2019-02-10T10:46:32.302Z,10.51
2019-02-10T10:49:00.780Z,10.42
2019-02-10T10:51:29.289Z,10.42
2019-02-10T10:53:57.912Z,10.39
2019-02-10T10:56:26.499Z,10.33
2019-02-10T10:58:55.165Z,10.23
2019-02-10T11:01:25.275Z,10.25
2019-02-10T11:03:54.155Z,10.12
2019-02-10T11:06:22.671Z,10.12
2019-02-10T11:08:51.245Z,10.13
2019-02-10T11:11:19.830Z,10.24
2019-02-10T11:13:48.430Z,10.29
2019-02-10T11:16:17.050Z,10.36
2019-02-10T11:18:45.535Z,10.39
2019-02-10T11:21:14.086Z,10.47
2019-02-10T11:23:42.682Z,10.75
2019-02-10T11:26:11.249Z,10.84
2019-02-10T11:28:39.773Z,10.69
2019-02-10T11:31:08.410Z,10.56
2019-02-10T11:33:37.086Z,10.45
2019-02-10T11:36:05.609Z,10.38
2019-02-10T11:38:34.048Z,10.34
2019-02-10T11:41:02.735Z,10.35
2019-02-10T11:43:31.367Z,10.35
2019-02-10T11:45:59.878Z,10.36
2019-02-10T11:48:28.500Z,10.35
2019-02-10T11:50:57.079Z,10.25
2019-02-10T11:53:25.700Z,10.25
2019-02-10T11:55:54.289Z,10.25
2019-02-10T11:58:22.903Z,10.27
2019-02-10T12:00:51.493Z,10.31
2019-02-10T12:03:20.200Z,10.28
2019-02-10T12:05:48.820Z,10.40
2019-02-10T12:08:17.404Z,10.55
2019-02-10T12:10:46.203Z,10.70
2019-02-10T12:13:14.788Z,10.54
2019-02-10T12:15:43.475Z,10.30
2019-02-10T12:18:12.136Z,10.08
2019-02-10T12:20:41.719Z,9.99
2019-02-10T12:23:10.364Z,10.10
2019-02-10T12:25:39.838Z,10.04
2019-02-10T12:28:08.539Z,9.91
2019-02-10T12:30:37.148Z,9.86
2019-02-10T12:33:05.730Z,9.91
2019-02-10T12:35:34.374Z,9.97
2019-02-10T12:38:03.033Z,10.07
2019-02-10T12:40:31.644Z,10.17
2019-02-10T12:43:00.288Z,10.19
2019-02-10T12:45:28.937Z,10.34
2019-02-10T12:47:57.457Z,10.31
2019-02-10T12:50:25.997Z,10.10
2019-02-10T12:52:54.673Z,9.99
2019-02-10T12:55:23.208Z,9.86
2019-02-10T12:57:51.884Z,9.78
2019-02-10T13:00:20.850Z,9.72
2019-02-10T13:02:49.543Z,9.62
2019-02-10T13:05:18.475Z,9.56
2019-02-10T13:10:34.686Z,9.59
2019-02-10T13:13:03.194Z,9.70
2019-02-10T13:15:31.807Z,9.76
2019-02-10T13:18:00.430Z,9.94
2019-02-10T13:20:28.987Z,10.23
2019-02-10T13:22:57.618Z,10.20
2019-02-10T13:25:26.203Z,9.92
2019-02-10T13:27:54.830Z,9.78
2019-02-10T13:30:23.474Z,9.81
2019-02-10T13:32:51.985Z,9.93
2019-02-10T13:35:20.686Z,9.87
2019-02-10T13:37:49.213Z,9.76
2019-02-10T13:40:19.708Z,9.69
2019-02-10T13:42:48.392Z,9.63
2019-02-10T13:45:16.967Z,9.64
2019-02-10T13:47:45.509Z,9.65
2019-02-10T13:50:20.525Z,9.75
2019-02-10T13:52:49.231Z,9.88
2019-02-10T13:55:17.958Z,10.04
2019-02-10T13:57:46.611Z,10.16
2019-02-10T14:00:22.781Z,10.10
2019-02-10T14:02:51.882Z,9.87
2019-02-10T14:05:20.564Z,9.73
2019-02-10T14:07:50.817Z,9.61
2019-02-10T14:10:25.413Z,9.53
2019-02-10T14:12:49.835Z,9.53
2019-02-10T14:15:19.460Z,9.46
2019-02-10T14:17:48.160Z,9.40
2019-02-10T14:20:20.396Z,9.31
2019-02-10T14:22:49.014Z,9.30
2019-02-10T14:25:17.572Z,9.30
2019-02-10T14:27:46.187Z,9.49
2019-02-10T14:30:19.838Z,9.62
2019-02-10T14:32:51.533Z,9.83
2019-02-10T14:35:20.158Z,9.73
2019-02-10T14:37:49.057Z,9.61
2019-02-10T14:40:17.679Z,9.49
2019-02-10T14:42:46.485Z,9.40
2019-02-10T14:45:16.041Z,9.38
2019-02-10T14:47:44.631Z,9.33
2019-02-10T14:50:17.771Z,9.17
2019-02-10T14:52:46.443Z,9.17
2019-02-10T14:55:15.019Z,9.18
2019-02-10T14:57:43.624Z,9.28
2019-02-10T15:00:16.315Z,9.33
2019-02-10T15:02:44.933Z,9.36
2019-02-10T15:05:13.520Z,9.47
2019-02-10T15:07:42.182Z,9.63
2019-02-10T15:10:13.392Z,9.53
2019-02-10T15:12:42.038Z,9.35
2019-02-10T15:15:11.518Z,9.29
2019-02-10T15:17:40.127Z,9.12
2019-02-10T15:20:10.483Z,9.06
2019-02-10T15:22:39.179Z,9.03
2019-02-10T15:25:12.255Z,8.95
2019-02-10T15:27:41.969Z,8.93
2019-02-10T15:30:17.545Z,8.93
2019-02-10T15:32:46.144Z,8.93
2019-02-10T15:35:14.728Z,8.92
2019-02-10T15:37:43.308Z,8.86
2019-02-10T15:40:12.897Z,8.93
2019-02-10T15:42:41.490Z,9.21
2019-02-10T15:45:11.997Z,9.13
2019-02-10T15:47:40.524Z,8.96
2019-02-10T15:50:11.200Z,8.95
2019-02-10T15:52:39.779Z,8.93
2019-02-10T15:55:10.764Z,8.90
2019-02-10T15:57:39.378Z,8.86
2019-02-10T16:00:20.101Z,8.91
2019-02-10T16:02:48.683Z,8.94
2019-02-10T16:05:17.372Z,8.96
2019-02-10T16:07:45.955Z,8.92
2019-02-10T16:10:14.492Z,8.86
2019-02-10T16:12:43.118Z,8.88
2019-02-10T16:15:12.619Z,9.07
2019-02-10T16:17:41.207Z,9.24
2019-02-10T16:20:14.217Z,9.16
2019-02-10T16:22:42.931Z,8.97
2019-02-10T16:25:11.580Z,8.81
2019-02-10T16:27:42.755Z,8.63
2019-02-10T16:30:16.112Z,8.51
2019-02-10T16:32:49.949Z,8.46
2019-02-10T16:35:15.117Z,8.27
2019-02-10T16:37:43.742Z,8.12
2019-02-10T16:40:15.244Z,7.92
2019-02-10T16:42:43.831Z,7.73
2019-02-10T16:45:13.242Z,7.61
2019-02-10T16:47:42.148Z,7.57
2019-02-10T16:50:13.459Z,7.66
2019-02-10T16:52:42.108Z,7.94
2019-02-10T16:55:16.658Z,8.14
2019-02-10T16:57:45.252Z,7.92
2019-02-10T17:00:15.265Z,7.60
2019-02-10T17:02:43.847Z,7.41
2019-02-10T17:05:12.859Z,7.30
2019-02-10T17:07:41.424Z,7.35
2019-02-10T17:10:14.684Z,7.44
2019-02-10T17:12:43.263Z,7.43
2019-02-10T17:15:12.844Z,7.51
2019-02-10T17:17:41.477Z,7.68
2019-02-10T17:20:13.515Z,7.69
2019-02-10T17:22:42.123Z,7.82
2019-02-10T17:25:27.849Z,7.97
2019-02-10T17:27:56.407Z,8.08
2019-02-10T17:30:24.993Z,8.30
2019-02-10T17:32:53.581Z,8.12
2019-02-10T17:35:22.199Z,7.96
2019-02-10T17:37:50.815Z,7.82
2019-02-10T17:40:45.051Z,7.79
2019-02-10T17:43:13.585Z,7.71
2019-02-10T17:45:42.180Z,7.60
2019-02-10T17:48:10.742Z,7.43
2019-02-10T17:50:39.225Z,7.49
2019-02-10T17:53:07.836Z,7.52
2019-02-10T17:55:36.345Z,7.44
2019-02-10T17:58:04.931Z,7.42
2019-02-10T18:00:35.115Z,7.63
2019-02-10T18:03:03.796Z,7.68
2019-02-10T18:05:32.493Z,7.82
2019-02-10T18:08:01.065Z,7.65
2019-02-10T18:10:29.641Z,7.54
2019-02-10T18:12:58.222Z,7.45
2019-02-10T18:15:28.702Z,7.20
2019-02-10T18:18:10.900Z,7.08
2019-02-10T18:20:46.979Z,6.90
2019-02-10T18:23:33.034Z,6.95
2019-02-10T18:26:12.367Z,7.02
2019-02-10T18:28:45.743Z,7.29
2019-02-10T18:31:28.193Z,7.39
2019-02-10T18:34:07.176Z,7.22
2019-02-10T18:36:46.137Z,7.22
2019-02-10T18:39:32.427Z,7.47
2019-02-10T18:42:02.637Z,7.65
2019-02-10T18:44:47.883Z,7.23
2019-02-10T18:47:18.168Z,6.85
2019-02-10T18:49:48.416Z,6.71
2019-02-10T18:52:34.551Z,6.55
2019-02-10T18:55:04.889Z,6.27
2019-02-10T18:57:37.812Z,6.23
2019-02-10T19:00:15.244Z,6.04
2019-02-10T19:02:48.094Z,5.96
2019-02-10T19:05:18.326Z,5.78
2019-02-10T19:08:00.514Z,5.61
2019-02-10T19:10:42.857Z,5.53
2019-02-10T19:13:31.145Z,5.88
2019-02-10T19:16:03.863Z,6.32
2019-02-10T19:18:36.933Z,6.40
2019-02-10T19:21:07.190Z,6.18
2019-02-10T19:23:52.488Z,5.83
2019-02-10T19:26:22.752Z,5.65
2019-02-10T19:29:09.287Z,5.54
2019-02-10T19:31:57.405Z,5.49
2019-02-10T19:34:33.338Z,5.35
2019-02-10T19:37:19.414Z,5.40
2019-02-10T19:39:49.578Z,5.61
2019-02-10T19:42:35.614Z,5.64
2019-02-10T19:45:22.442Z,5.64
2019-02-10T19:48:09.985Z,5.77
2019-02-10T19:50:49.093Z,5.97
2019-02-10T19:53:19.280Z,6.30
2019-02-10T19:55:50.614Z,6.05
2019-02-10T19:58:37.057Z,5.88
2019-02-10T20:01:25.234Z,5.71
2019-02-10T20:03:55.406Z,5.50
2019-02-10T20:06:31.392Z,5.41
2019-02-10T20:09:07.343Z,5.36
2019-02-10T20:11:37.519Z,5.35
2019-02-10T20:14:19.631Z,5.21
2019-02-10T20:16:55.861Z,5.09
2019-02-10T20:19:26.036Z,5.15
2019-02-10T20:21:59.011Z,5.14
2019-02-10T20:24:29.277Z,5.27
2019-02-10T20:27:08.272Z,5.70
2019-02-10T20:29:38.357Z,5.79
2019-02-10T20:32:12.634Z,5.50
2019-02-10T20:34:54.589Z,5.27
2019-02-10T20:37:27.584Z,4.95
2019-02-10T20:40:03.575Z,4.89
2019-02-10T20:42:36.872Z,4.96
2019-02-10T20:45:07.850Z,5.13
2019-02-10T20:47:38.122Z,5.14
2019-02-10T20:50:19.395Z,5.08
2019-02-10T20:52:55.577Z,5.11
2019-02-10T20:55:25.692Z,5.14
2019-02-10T20:58:02.070Z,4.96
2019-02-10T21:00:35.175Z,5.05
2019-02-10T21:03:17.131Z,5.65
2019-02-10T21:05:47.433Z,5.63
2019-02-10T21:08:17.684Z,5.36
2019-02-10T21:10:59.947Z,5.11
2019-02-10T21:13:30.113Z,5.09
2019-02-10T21:16:03.316Z,5.11
2019-02-10T21:18:45.549Z,5.22
2019-02-10T21:21:15.712Z,5.03
2019-02-10T21:23:45.817Z,5.04
2019-02-10T21:26:18.745Z,4.81
2019-02-10T21:29:00.984Z,4.90
2019-02-10T21:31:31.278Z,4.75
2019-02-10T21:34:07.447Z,4.77
2019-02-10T21:36:40.602Z,4.85
2019-02-10T21:39:10.831Z,5.27
2019-02-10T21:41:41.137Z,4.99
2019-02-10T21:44:23.343Z,4.79
2019-02-10T21:47:02.702Z,4.70
2019-02-10T21:49:31.257Z,4.43
2019-02-10T21:51:59.877Z,4.29
2019-02-10T21:54:28.500Z,4.14
2019-02-10T21:56:57.181Z,3.91
2019-02-10T21:59:25.768Z,3.89
2019-02-10T22:01:54.434Z,3.91
2019-02-10T22:07:04.647Z,3.99
2019-02-10T22:09:33.168Z,4.09
2019-02-10T22:12:01.787Z,4.18
2019-02-10T22:14:30.293Z,4.52
2019-02-10T22:16:58.936Z,4.52
2019-02-10T22:19:27.491Z,4.30
2019-02-10T22:21:56.188Z,4.16
2019-02-10T22:24:24.783Z,4.26
2019-02-10T22:26:53.335Z,4.39
2019-02-10T22:29:21.935Z,4.24
2019-02-10T22:31:50.483Z,4.13
2019-02-10T22:34:19.081Z,4.14
2019-02-10T22:36:47.695Z,4.12
2019-02-10T22:39:19.850Z,4.17
2019-02-10T22:41:48.464Z,4.08
2019-02-10T22:44:17.161Z,4.19
2019-02-10T22:46:45.699Z,4.31
2019-02-10T22:49:14.245Z,4.60
2019-02-10T22:51:43.322Z,4.98
2019-02-10T22:54:11.878Z,4.66
2019-02-10T22:56:40.455Z,4.42
2019-02-10T22:59:08.970Z,4.18
2019-02-10T23:01:37.646Z,4.08
2019-02-10T23:04:06.293Z,4.16
2019-02-10T23:06:34.965Z,4.24
2019-02-10T23:09:06.526Z,4.17
2019-02-10T23:11:35.095Z,4.37
2019-02-10T23:14:03.672Z,4.61
2019-02-10T23:16:32.248Z,4.58
2019-02-10T23:19:00.788Z,4.54
2019-02-10T23:21:29.333Z,4.63
2019-02-10T23:23:57.988Z,4.85
2019-02-10T23:26:26.601Z,5.15
2019-02-10T23:28:55.174Z,5.10
2019-02-10T23:31:23.767Z,4.96
2019-02-10T23:33:52.391Z,4.96
2019-02-10T23:36:20.921Z,4.87
2019-02-10T23:38:49.448Z,4.78
2019-02-10T23:41:18.006Z,4.64
2019-02-10T23:43:46.503Z,4.68
2019-02-10T23:46:15.081Z,4.67
2019-02-10T23:48:43.660Z,4.73
2019-02-10T23:51:12.241Z,4.83
2019-02-10T23:53:40.886Z,4.94
2019-02-10T23:56:09.486Z,5.04
2019-02-10T23:58:38.031Z,5.05
